sensor_id;sensor_type;location;lat;lon;timestamp;P1;durP1;ratioP1;P2;durP2;ratioP2
12155;SDS011;6141;49.092;8.516;2024-02-21T00:00:19;12.53;;;6.20;;
12155;SDS011;6141;49.092;8.516;2024-02-21T00:02:48;9.80;;;5.27;;
12155;SDS011;6141;49.092;8.516;2024-02-21T00:05:16;9.77;;;5.63;;
12155;SDS011;6141;49.092;8.516;2024-02-21T00:07:44;13.37;;;5.40;;
12155;SDS011;6141;49.092;8.516;2024-02-21T00:10:13;9.20;;;5.40;;
12155;SDS011;6141;49.092;8.516;2024-02-21T00:12:41;12.43;;;5.77;;
12155;SDS011;6141;49.092;8.516;2024-02-21T00:15:11;10.63;;;4.97;;
12155;SDS011;6141;49.092;8.516;2024-02-21T00:17:39;14.17;;;5.90;;
12155;SDS011;6141;49.092;8.516;2024-02-21T00:20:07;12.47;;;5.60;;
12155;SDS011;6141;49.092;8.516;2024-02-21T00:22:37;11.57;;;4.87;;
12155;SDS011;6141;49.092;8.516;2024-02-21T00:25:05;11.63;;;5.20;;
12155;SDS011;6141;49.092;8.516;2024-02-21T00:27:34;10.87;;;4.77;;
12155;SDS011;6141;49.092;8.516;2024-02-21T00:30:03;13.17;;;5.43;;
12155;SDS011;6141;49.092;8.516;2024-02-21T00:32:33;14.50;;;5.50;;
12155;SDS011;6141;49.092;8.516;2024-02-21T00:35:01;10.83;;;4.63;;
12155;SDS011;6141;49.092;8.516;2024-02-21T00:37:30;10.67;;;4.73;;
12155;SDS011;6141;49.092;8.516;2024-02-21T00:39:59;10.57;;;4.67;;
12155;SDS011;6141;49.092;8.516;2024-02-21T00:42:27;10.80;;;4.47;;
12155;SDS011;6141;49.092;8.516;2024-02-21T00:44:55;11.40;;;4.87;;
12155;SDS011;6141;49.092;8.516;2024-02-21T00:47:23;16.63;;;5.20;;
12155;SDS011;6141;49.092;8.516;2024-02-21T00:49:53;11.20;;;4.60;;
12155;SDS011;6141;49.092;8.516;2024-02-21T00:52:21;11.43;;;4.60;;
12155;SDS011;6141;49.092;8.516;2024-02-21T00:54:49;11.70;;;4.77;;
12155;SDS011;6141;49.092;8.516;2024-02-21T00:57:20;10.87;;;4.60;;
12155;SDS011;6141;49.092;8.516;2024-02-21T00:59:49;9.40;;;4.70;;
12155;SDS011;6141;49.092;8.516;2024-02-21T01:02:17;12.33;;;4.53;;
12155;SDS011;6141;49.092;8.516;2024-02-21T01:04:46;10.23;;;4.50;;
12155;SDS011;6141;49.092;8.516;2024-02-21T01:07:15;11.67;;;5.03;;
12155;SDS011;6141;49.092;8.516;2024-02-21T01:09:44;10.73;;;4.80;;
12155;SDS011;6141;49.092;8.516;2024-02-21T01:12:12;12.10;;;4.33;;
12155;SDS011;6141;49.092;8.516;2024-02-21T01:14:40;9.60;;;4.77;;
12155;SDS011;6141;49.092;8.516;2024-02-21T01:17:08;13.17;;;5.13;;
12155;SDS011;6141;49.092;8.516;2024-02-21T01:19:36;10.83;;;5.00;;
12155;SDS011;6141;49.092;8.516;2024-02-21T01:22:04;11.50;;;4.90;;
12155;SDS011;6141;49.092;8.516;2024-02-21T01:24:34;10.80;;;4.60;;
12155;SDS011;6141;49.092;8.516;2024-02-21T01:27:02;11.63;;;4.83;;
12155;SDS011;6141;49.092;8.516;2024-02-21T01:29:30;9.73;;;4.73;;
12155;SDS011;6141;49.092;8.516;2024-02-21T01:31:59;10.97;;;4.87;;
12155;SDS011;6141;49.092;8.516;2024-02-21T01:34:27;14.00;;;4.83;;
12155;SDS011;6141;49.092;8.516;2024-02-21T01:36:58;10.33;;;4.60;;
12155;SDS011;6141;49.092;8.516;2024-02-21T01:39:30;11.17;;;5.30;;
12155;SDS011;6141;49.092;8.516;2024-02-21T01:42:00;14.50;;;5.00;;
12155;SDS011;6141;49.092;8.516;2024-02-21T01:44:28;10.63;;;4.87;;
12155;SDS011;6141;49.092;8.516;2024-02-21T01:46:56;15.07;;;5.00;;
12155;SDS011;6141;49.092;8.516;2024-02-21T01:49:25;10.63;;;4.50;;
12155;SDS011;6141;49.092;8.516;2024-02-21T01:51:53;10.80;;;4.60;;
12155;SDS011;6141;49.092;8.516;2024-02-21T01:54:22;10.20;;;4.73;;
12155;SDS011;6141;49.092;8.516;2024-02-21T01:56:51;10.20;;;4.57;;
12155;SDS011;6141;49.092;8.516;2024-02-21T01:59:21;12.43;;;4.53;;
12155;SDS011;6141;49.092;8.516;2024-02-21T02:01:50;12.23;;;5.33;;
12155;SDS011;6141;49.092;8.516;2024-02-21T02:04:19;10.37;;;4.60;;
12155;SDS011;6141;49.092;8.516;2024-02-21T02:06:48;9.77;;;4.47;;
12155;SDS011;6141;49.092;8.516;2024-02-21T02:09:19;11.10;;;4.37;;
12155;SDS011;6141;49.092;8.516;2024-02-21T02:11:47;12.50;;;4.70;;
12155;SDS011;6141;49.092;8.516;2024-02-21T02:14:15;8.37;;;4.33;;
12155;SDS011;6141;49.092;8.516;2024-02-21T02:16:47;11.70;;;4.60;;
12155;SDS011;6141;49.092;8.516;2024-02-21T02:19:15;10.30;;;4.33;;
12155;SDS011;6141;49.092;8.516;2024-02-21T02:21:45;11.07;;;4.60;;
12155;SDS011;6141;49.092;8.516;2024-02-21T02:24:21;10.90;;;4.50;;
12155;SDS011;6141;49.092;8.516;2024-02-21T02:26:51;11.73;;;4.40;;
12155;SDS011;6141;49.092;8.516;2024-02-21T02:29:19;8.57;;;4.03;;
12155;SDS011;6141;49.092;8.516;2024-02-21T02:31:48;9.10;;;3.73;;
12155;SDS011;6141;49.092;8.516;2024-02-21T02:34:17;9.33;;;4.23;;
12155;SDS011;6141;49.092;8.516;2024-02-21T02:36:45;9.13;;;4.40;;
12155;SDS011;6141;49.092;8.516;2024-02-21T02:39:15;10.03;;;4.30;;
12155;SDS011;6141;49.092;8.516;2024-02-21T02:41:44;9.70;;;4.53;;
12155;SDS011;6141;49.092;8.516;2024-02-21T02:44:12;9.73;;;4.23;;
12155;SDS011;6141;49.092;8.516;2024-02-21T02:46:40;9.30;;;4.23;;
12155;SDS011;6141;49.092;8.516;2024-02-21T02:49:09;10.43;;;3.97;;
12155;SDS011;6141;49.092;8.516;2024-02-21T02:51:40;11.07;;;4.00;;
12155;SDS011;6141;49.092;8.516;2024-02-21T02:54:09;13.50;;;4.10;;
12155;SDS011;6141;49.092;8.516;2024-02-21T02:56:38;12.30;;;4.07;;
12155;SDS011;6141;49.092;8.516;2024-02-21T02:59:07;10.03;;;4.23;;
12155;SDS011;6141;49.092;8.516;2024-02-21T03:01:36;8.73;;;4.10;;
12155;SDS011;6141;49.092;8.516;2024-02-21T03:04:05;12.33;;;4.10;;
12155;SDS011;6141;49.092;8.516;2024-02-21T03:06:33;10.47;;;4.20;;
12155;SDS011;6141;49.092;8.516;2024-02-21T03:09:01;9.03;;;3.57;;
12155;SDS011;6141;49.092;8.516;2024-02-21T03:11:35;9.63;;;4.03;;
12155;SDS011;6141;49.092;8.516;2024-02-21T03:14:09;10.90;;;4.03;;
12155;SDS011;6141;49.092;8.516;2024-02-21T03:16:37;9.13;;;3.80;;
12155;SDS011;6141;49.092;8.516;2024-02-21T03:19:05;9.57;;;3.90;;
12155;SDS011;6141;49.092;8.516;2024-02-21T03:21:33;9.70;;;3.93;;
12155;SDS011;6141;49.092;8.516;2024-02-21T03:24:02;10.37;;;3.80;;
12155;SDS011;6141;49.092;8.516;2024-02-21T03:26:30;7.40;;;3.47;;
12155;SDS011;6141;49.092;8.516;2024-02-21T03:28:58;10.03;;;3.90;;
12155;SDS011;6141;49.092;8.516;2024-02-21T03:31:28;11.27;;;4.00;;
12155;SDS011;6141;49.092;8.516;2024-02-21T03:33:58;9.00;;;3.67;;
12155;SDS011;6141;49.092;8.516;2024-02-21T03:36:26;6.83;;;3.43;;
12155;SDS011;6141;49.092;8.516;2024-02-21T03:38:54;9.27;;;3.93;;
12155;SDS011;6141;49.092;8.516;2024-02-21T03:41:23;11.53;;;4.20;;
12155;SDS011;6141;49.092;8.516;2024-02-21T03:43:51;8.67;;;3.83;;
12155;SDS011;6141;49.092;8.516;2024-02-21T03:46:19;9.23;;;3.63;;
12155;SDS011;6141;49.092;8.516;2024-02-21T03:48:49;10.23;;;4.17;;
12155;SDS011;6141;49.092;8.516;2024-02-21T03:51:17;6.87;;;3.70;;
12155;SDS011;6141;49.092;8.516;2024-02-21T03:53:45;11.93;;;4.47;;
12155;SDS011;6141;49.092;8.516;2024-02-21T03:56:13;8.20;;;3.60;;
12155;SDS011;6141;49.092;8.516;2024-02-21T03:58:41;8.77;;;3.43;;
12155;SDS011;6141;49.092;8.516;2024-02-21T04:01:09;8.03;;;3.57;;
12155;SDS011;6141;49.092;8.516;2024-02-21T04:03:39;7.67;;;3.53;;
12155;SDS011;6141;49.092;8.516;2024-02-21T04:06:08;8.83;;;3.80;;
12155;SDS011;6141;49.092;8.516;2024-02-21T04:08:37;8.07;;;3.63;;
12155;SDS011;6141;49.092;8.516;2024-02-21T04:11:06;9.23;;;3.83;;
12155;SDS011;6141;49.092;8.516;2024-02-21T04:13:34;11.50;;;4.37;;
12155;SDS011;6141;49.092;8.516;2024-02-21T04:16:02;8.47;;;4.03;;
12155;SDS011;6141;49.092;8.516;2024-02-21T04:18:32;9.20;;;3.97;;
12155;SDS011;6141;49.092;8.516;2024-02-21T04:21:01;8.97;;;4.00;;
12155;SDS011;6141;49.092;8.516;2024-02-21T04:23:30;8.83;;;3.40;;
12155;SDS011;6141;49.092;8.516;2024-02-21T04:25:59;8.90;;;3.83;;
12155;SDS011;6141;49.092;8.516;2024-02-21T04:28:27;8.13;;;4.30;;
12155;SDS011;6141;49.092;8.516;2024-02-21T04:30:55;10.00;;;4.23;;
12155;SDS011;6141;49.092;8.516;2024-02-21T04:33:23;5.20;;;3.33;;
12155;SDS011;6141;49.092;8.516;2024-02-21T04:35:51;11.93;;;3.80;;
12155;SDS011;6141;49.092;8.516;2024-02-21T04:38:21;9.87;;;3.83;;
12155;SDS011;6141;49.092;8.516;2024-02-21T04:40:50;11.00;;;4.00;;
12155;SDS011;6141;49.092;8.516;2024-02-21T04:43:19;7.97;;;4.00;;
12155;SDS011;6141;49.092;8.516;2024-02-21T04:45:47;13.17;;;4.50;;
12155;SDS011;6141;49.092;8.516;2024-02-21T04:48:15;11.90;;;4.10;;
12155;SDS011;6141;49.092;8.516;2024-02-21T04:50:44;12.07;;;4.47;;
12155;SDS011;6141;49.092;8.516;2024-02-21T04:53:12;10.00;;;4.00;;
12155;SDS011;6141;49.092;8.516;2024-02-21T04:55:41;9.20;;;3.73;;
12155;SDS011;6141;49.092;8.516;2024-02-21T04:58:10;12.27;;;4.37;;
12155;SDS011;6141;49.092;8.516;2024-02-21T05:00:39;9.87;;;4.03;;
12155;SDS011;6141;49.092;8.516;2024-02-21T05:03:07;11.17;;;4.00;;
12155;SDS011;6141;49.092;8.516;2024-02-21T05:05:36;9.87;;;4.30;;
12155;SDS011;6141;49.092;8.516;2024-02-21T05:08:04;11.43;;;4.13;;
12155;SDS011;6141;49.092;8.516;2024-02-21T05:10:33;7.23;;;3.30;;
12155;SDS011;6141;49.092;8.516;2024-02-21T05:13:01;7.73;;;3.80;;
12155;SDS011;6141;49.092;8.516;2024-02-21T05:15:30;10.23;;;4.23;;
12155;SDS011;6141;49.092;8.516;2024-02-21T05:17:59;10.13;;;4.00;;
12155;SDS011;6141;49.092;8.516;2024-02-21T05:20:27;9.03;;;3.80;;
12155;SDS011;6141;49.092;8.516;2024-02-21T05:22:56;8.70;;;3.80;;
12155;SDS011;6141;49.092;8.516;2024-02-21T05:25:24;9.37;;;3.83;;
12155;SDS011;6141;49.092;8.516;2024-02-21T05:27:53;7.97;;;3.90;;
12155;SDS011;6141;49.092;8.516;2024-02-21T05:30:22;7.67;;;3.57;;
12155;SDS011;6141;49.092;8.516;2024-02-21T05:32:52;8.93;;;3.90;;
12155;SDS011;6141;49.092;8.516;2024-02-21T05:35:24;10.30;;;3.83;;
12155;SDS011;6141;49.092;8.516;2024-02-21T05:37:53;11.33;;;4.50;;
12155;SDS011;6141;49.092;8.516;2024-02-21T05:40:21;9.80;;;4.00;;
12155;SDS011;6141;49.092;8.516;2024-02-21T05:42:50;8.70;;;4.50;;
12155;SDS011;6141;49.092;8.516;2024-02-21T05:45:18;8.83;;;3.90;;
12155;SDS011;6141;49.092;8.516;2024-02-21T05:47:46;8.97;;;4.00;;
12155;SDS011;6141;49.092;8.516;2024-02-21T05:50:16;8.90;;;3.83;;
12155;SDS011;6141;49.092;8.516;2024-02-21T05:52:44;10.43;;;4.23;;
12155;SDS011;6141;49.092;8.516;2024-02-21T05:55:13;8.47;;;4.40;;
12155;SDS011;6141;49.092;8.516;2024-02-21T05:57:41;8.17;;;4.10;;
12155;SDS011;6141;49.092;8.516;2024-02-21T06:00:09;9.83;;;3.80;;
12155;SDS011;6141;49.092;8.516;2024-02-21T06:02:38;8.30;;;4.00;;
12155;SDS011;6141;49.092;8.516;2024-02-21T06:05:06;10.60;;;3.90;;
12155;SDS011;6141;49.092;8.516;2024-02-21T06:07:36;6.97;;;3.80;;
12155;SDS011;6141;49.092;8.516;2024-02-21T06:10:06;8.30;;;4.07;;
12155;SDS011;6141;49.092;8.516;2024-02-21T06:12:35;11.07;;;4.33;;
12155;SDS011;6141;49.092;8.516;2024-02-21T06:15:04;8.17;;;3.90;;
12155;SDS011;6141;49.092;8.516;2024-02-21T06:17:33;10.40;;;4.60;;
12155;SDS011;6141;49.092;8.516;2024-02-21T06:20:01;10.37;;;4.20;;
12155;SDS011;6141;49.092;8.516;2024-02-21T06:22:30;9.67;;;4.00;;
12155;SDS011;6141;49.092;8.516;2024-02-21T06:24:59;7.13;;;3.80;;
12155;SDS011;6141;49.092;8.516;2024-02-21T06:27:29;10.93;;;4.17;;
12155;SDS011;6141;49.092;8.516;2024-02-21T06:29:57;6.93;;;3.83;;
12155;SDS011;6141;49.092;8.516;2024-02-21T06:32:25;6.87;;;3.73;;
12155;SDS011;6141;49.092;8.516;2024-02-21T06:34:53;7.60;;;3.77;;
12155;SDS011;6141;49.092;8.516;2024-02-21T06:37:21;7.13;;;3.87;;
12155;SDS011;6141;49.092;8.516;2024-02-21T06:39:49;10.83;;;4.27;;
12155;SDS011;6141;49.092;8.516;2024-02-21T06:42:19;8.87;;;4.13;;
12155;SDS011;6141;49.092;8.516;2024-02-21T06:44:48;11.27;;;4.30;;
12155;SDS011;6141;49.092;8.516;2024-02-21T06:47:16;10.03;;;4.10;;
12155;SDS011;6141;49.092;8.516;2024-02-21T06:49:47;8.87;;;4.20;;
12155;SDS011;6141;49.092;8.516;2024-02-21T06:52:17;7.70;;;3.90;;
12155;SDS011;6141;49.092;8.516;2024-02-21T06:54:47;10.33;;;4.33;;
12155;SDS011;6141;49.092;8.516;2024-02-21T06:57:15;7.43;;;3.60;;
12155;SDS011;6141;49.092;8.516;2024-02-21T06:59:45;8.67;;;4.00;;
12155;SDS011;6141;49.092;8.516;2024-02-21T07:02:13;9.53;;;3.97;;
12155;SDS011;6141;49.092;8.516;2024-02-21T07:04:41;8.10;;;3.90;;
12155;SDS011;6141;49.092;8.516;2024-02-21T07:07:10;9.00;;;4.07;;
12155;SDS011;6141;49.092;8.516;2024-02-21T07:09:39;8.37;;;4.07;;
12155;SDS011;6141;49.092;8.516;2024-02-21T07:12:07;7.47;;;3.23;;
12155;SDS011;6141;49.092;8.516;2024-02-21T07:14:36;9.80;;;4.30;;
12155;SDS011;6141;49.092;8.516;2024-02-21T07:17:05;8.40;;;4.37;;
12155;SDS011;6141;49.092;8.516;2024-02-21T07:19:33;9.63;;;3.93;;
12155;SDS011;6141;49.092;8.516;2024-02-21T07:22:03;12.40;;;4.20;;
12155;SDS011;6141;49.092;8.516;2024-02-21T07:24:31;9.97;;;3.93;;
12155;SDS011;6141;49.092;8.516;2024-02-21T07:26:59;6.53;;;3.50;;
12155;SDS011;6141;49.092;8.516;2024-02-21T07:29:31;10.47;;;3.70;;
12155;SDS011;6141;49.092;8.516;2024-02-21T07:31:59;8.00;;;3.70;;
12155;SDS011;6141;49.092;8.516;2024-02-21T07:34:29;9.30;;;3.37;;
12155;SDS011;6141;49.092;8.516;2024-02-21T07:36:57;9.43;;;3.83;;
12155;SDS011;6141;49.092;8.516;2024-02-21T07:39:25;8.90;;;3.73;;
12155;SDS011;6141;49.092;8.516;2024-02-21T07:41:53;9.97;;;3.87;;
12155;SDS011;6141;49.092;8.516;2024-02-21T07:44:21;10.00;;;4.03;;
12155;SDS011;6141;49.092;8.516;2024-02-21T07:46:50;9.40;;;4.17;;
12155;SDS011;6141;49.092;8.516;2024-02-21T07:49:18;8.60;;;3.80;;
12155;SDS011;6141;49.092;8.516;2024-02-21T07:51:47;10.27;;;3.73;;
12155;SDS011;6141;49.092;8.516;2024-02-21T07:54:16;10.10;;;4.13;;
12155;SDS011;6141;49.092;8.516;2024-02-21T07:56:46;9.30;;;4.30;;
12155;SDS011;6141;49.092;8.516;2024-02-21T07:59:14;9.10;;;4.17;;
12155;SDS011;6141;49.092;8.516;2024-02-21T08:01:43;8.67;;;3.90;;
12155;SDS011;6141;49.092;8.516;2024-02-21T08:04:12;6.70;;;3.53;;
12155;SDS011;6141;49.092;8.516;2024-02-21T08:06:41;8.37;;;3.90;;
12155;SDS011;6141;49.092;8.516;2024-02-21T08:09:11;8.20;;;3.80;;
12155;SDS011;6141;49.092;8.516;2024-02-21T08:11:39;8.63;;;4.00;;
12155;SDS011;6141;49.092;8.516;2024-02-21T08:14:07;9.43;;;3.90;;
12155;SDS011;6141;49.092;8.516;2024-02-21T08:16:35;8.53;;;4.20;;
12155;SDS011;6141;49.092;8.516;2024-02-21T08:19:03;8.20;;;3.73;;
12155;SDS011;6141;49.092;8.516;2024-02-21T08:21:31;9.57;;;4.00;;
12155;SDS011;6141;49.092;8.516;2024-02-21T08:23:59;9.20;;;3.63;;
12155;SDS011;6141;49.092;8.516;2024-02-21T08:26:29;7.63;;;3.53;;
12155;SDS011;6141;49.092;8.516;2024-02-21T08:28:57;11.97;;;4.17;;
12155;SDS011;6141;49.092;8.516;2024-02-21T08:31:27;11.37;;;4.00;;
12155;SDS011;6141;49.092;8.516;2024-02-21T08:33:58;8.67;;;3.80;;
12155;SDS011;6141;49.092;8.516;2024-02-21T08:36:29;9.20;;;4.13;;
12155;SDS011;6141;49.092;8.516;2024-02-21T08:38:56;8.13;;;3.87;;
12155;SDS011;6141;49.092;8.516;2024-02-21T08:41:24;8.27;;;3.77;;
12155;SDS011;6141;49.092;8.516;2024-02-21T08:44:14;8.33;;;4.03;;
12155;SDS011;6141;49.092;8.516;2024-02-21T08:46:42;6.83;;;3.60;;
12155;SDS011;6141;49.092;8.516;2024-02-21T08:49:11;10.20;;;4.03;;
12155;SDS011;6141;49.092;8.516;2024-02-21T08:51:40;9.67;;;3.70;;
12155;SDS011;6141;49.092;8.516;2024-02-21T08:54:09;10.03;;;4.03;;
12155;SDS011;6141;49.092;8.516;2024-02-21T08:56:40;6.80;;;3.90;;
12155;SDS011;6141;49.092;8.516;2024-02-21T08:59:08;8.93;;;3.60;;
12155;SDS011;6141;49.092;8.516;2024-02-21T09:01:38;9.13;;;3.77;;
12155;SDS011;6141;49.092;8.516;2024-02-21T09:04:06;9.00;;;3.70;;
12155;SDS011;6141;49.092;8.516;2024-02-21T09:06:34;9.20;;;3.70;;
12155;SDS011;6141;49.092;8.516;2024-02-21T09:09:05;8.23;;;3.63;;
12155;SDS011;6141;49.092;8.516;2024-02-21T09:11:34;12.07;;;3.93;;
12155;SDS011;6141;49.092;8.516;2024-02-21T09:14:03;7.93;;;3.43;;
12155;SDS011;6141;49.092;8.516;2024-02-21T09:16:31;7.03;;;3.20;;
12155;SDS011;6141;49.092;8.516;2024-02-21T09:19:01;9.17;;;4.07;;
12155;SDS011;6141;49.092;8.516;2024-02-21T09:21:29;10.50;;;3.73;;
12155;SDS011;6141;49.092;8.516;2024-02-21T09:23:58;6.70;;;3.70;;
12155;SDS011;6141;49.092;8.516;2024-02-21T09:26:26;9.90;;;3.50;;
12155;SDS011;6141;49.092;8.516;2024-02-21T09:28:54;8.60;;;3.77;;
12155;SDS011;6141;49.092;8.516;2024-02-21T09:31:22;7.83;;;3.57;;
12155;SDS011;6141;49.092;8.516;2024-02-21T09:33:51;7.83;;;3.70;;
12155;SDS011;6141;49.092;8.516;2024-02-21T09:36:20;7.87;;;3.50;;
12155;SDS011;6141;49.092;8.516;2024-02-21T09:38:48;7.70;;;3.03;;
12155;SDS011;6141;49.092;8.516;2024-02-21T09:41:17;6.83;;;2.97;;
12155;SDS011;6141;49.092;8.516;2024-02-21T09:43:51;8.13;;;3.07;;
12155;SDS011;6141;49.092;8.516;2024-02-21T09:46:29;8.17;;;3.17;;
12155;SDS011;6141;49.092;8.516;2024-02-21T09:49:10;8.23;;;3.30;;
12155;SDS011;6141;49.092;8.516;2024-02-21T09:51:45;8.67;;;3.20;;
12155;SDS011;6141;49.092;8.516;2024-02-21T09:54:17;8.10;;;3.00;;
12155;SDS011;6141;49.092;8.516;2024-02-21T09:56:46;8.10;;;3.30;;
12155;SDS011;6141;49.092;8.516;2024-02-21T09:59:15;8.20;;;2.77;;
12155;SDS011;6141;49.092;8.516;2024-02-21T10:01:44;7.60;;;2.80;;
12155;SDS011;6141;49.092;8.516;2024-02-21T10:04:13;8.40;;;3.00;;
12155;SDS011;6141;49.092;8.516;2024-02-21T10:06:42;4.87;;;2.93;;
12155;SDS011;6141;49.092;8.516;2024-02-21T10:09:20;8.00;;;2.90;;
12155;SDS011;6141;49.092;8.516;2024-02-21T10:11:50;9.67;;;3.00;;
12155;SDS011;6141;49.092;8.516;2024-02-21T10:14:19;8.13;;;2.80;;
12155;SDS011;6141;49.092;8.516;2024-02-21T10:16:47;9.73;;;3.37;;
12155;SDS011;6141;49.092;8.516;2024-02-21T10:19:17;8.57;;;2.63;;
12155;SDS011;6141;49.092;8.516;2024-02-21T10:21:59;8.27;;;3.40;;
12155;SDS011;6141;49.092;8.516;2024-02-21T10:24:31;6.80;;;3.00;;
12155;SDS011;6141;49.092;8.516;2024-02-21T10:27:01;6.10;;;2.80;;
12155;SDS011;6141;49.092;8.516;2024-02-21T10:29:30;9.37;;;3.03;;
12155;SDS011;6141;49.092;8.516;2024-02-21T10:32:05;6.80;;;2.80;;
12155;SDS011;6141;49.092;8.516;2024-02-21T10:34:35;7.27;;;3.17;;
12155;SDS011;6141;49.092;8.516;2024-02-21T10:37:04;6.03;;;2.80;;
12155;SDS011;6141;49.092;8.516;2024-02-21T10:39:37;8.93;;;3.07;;
12155;SDS011;6141;49.092;8.516;2024-02-21T10:42:06;8.37;;;3.00;;
12155;SDS011;6141;49.092;8.516;2024-02-21T10:44:38;6.73;;;2.90;;
12155;SDS011;6141;49.092;8.516;2024-02-21T10:47:08;9.00;;;3.00;;
12155;SDS011;6141;49.092;8.516;2024-02-21T10:49:38;8.13;;;3.20;;
12155;SDS011;6141;49.092;8.516;2024-02-21T10:52:13;8.57;;;2.70;;
12155;SDS011;6141;49.092;8.516;2024-02-21T10:54:47;5.97;;;2.90;;
12155;SDS011;6141;49.092;8.516;2024-02-21T10:57:20;6.53;;;2.80;;
12155;SDS011;6141;49.092;8.516;2024-02-21T10:59:49;8.63;;;3.10;;
12155;SDS011;6141;49.092;8.516;2024-02-21T11:02:18;10.40;;;3.13;;
12155;SDS011;6141;49.092;8.516;2024-02-21T11:04:47;6.93;;;2.77;;
12155;SDS011;6141;49.092;8.516;2024-02-21T11:07:17;6.23;;;2.70;;
12155;SDS011;6141;49.092;8.516;2024-02-21T11:09:51;7.73;;;2.67;;
12155;SDS011;6141;49.092;8.516;2024-02-21T11:12:22;6.93;;;2.80;;
12155;SDS011;6141;49.092;8.516;2024-02-21T11:14:52;5.93;;;2.63;;
12155;SDS011;6141;49.092;8.516;2024-02-21T11:17:20;7.03;;;2.40;;
12155;SDS011;6141;49.092;8.516;2024-02-21T11:19:52;7.03;;;2.73;;
12155;SDS011;6141;49.092;8.516;2024-02-21T11:22:21;6.60;;;2.67;;
12155;SDS011;6141;49.092;8.516;2024-02-21T11:24:52;7.73;;;2.77;;
12155;SDS011;6141;49.092;8.516;2024-02-21T11:27:22;5.93;;;2.10;;
12155;SDS011;6141;49.092;8.516;2024-02-21T11:29:54;9.00;;;2.60;;
12155;SDS011;6141;49.092;8.516;2024-02-21T11:32:26;9.33;;;2.80;;
12155;SDS011;6141;49.092;8.516;2024-02-21T11:34:56;6.37;;;2.50;;
12155;SDS011;6141;49.092;8.516;2024-02-21T11:37:29;5.37;;;2.30;;
12155;SDS011;6141;49.092;8.516;2024-02-21T11:40:01;7.57;;;2.83;;
12155;SDS011;6141;49.092;8.516;2024-02-21T11:42:30;8.40;;;2.60;;
12155;SDS011;6141;49.092;8.516;2024-02-21T11:44:59;6.83;;;2.33;;
12155;SDS011;6141;49.092;8.516;2024-02-21T11:47:28;8.53;;;2.50;;
12155;SDS011;6141;49.092;8.516;2024-02-21T11:49:57;6.87;;;2.60;;
12155;SDS011;6141;49.092;8.516;2024-02-21T11:52:25;5.27;;;2.20;;
12155;SDS011;6141;49.092;8.516;2024-02-21T11:54:55;7.50;;;2.40;;
12155;SDS011;6141;49.092;8.516;2024-02-21T11:57:32;7.00;;;2.30;;
12155;SDS011;6141;49.092;8.516;2024-02-21T12:00:10;5.43;;;2.33;;
12155;SDS011;6141;49.092;8.516;2024-02-21T12:02:40;6.77;;;2.40;;
12155;SDS011;6141;49.092;8.516;2024-02-21T12:05:08;6.73;;;2.40;;
12155;SDS011;6141;49.092;8.516;2024-02-21T12:07:37;7.17;;;2.33;;
12155;SDS011;6141;49.092;8.516;2024-02-21T12:10:07;5.83;;;2.33;;
12155;SDS011;6141;49.092;8.516;2024-02-21T12:12:38;6.90;;;2.10;;
12155;SDS011;6141;49.092;8.516;2024-02-21T12:15:07;5.90;;;2.23;;
12155;SDS011;6141;49.092;8.516;2024-02-21T12:17:36;6.10;;;2.10;;
12155;SDS011;6141;49.092;8.516;2024-02-21T12:20:07;7.80;;;2.40;;
12155;SDS011;6141;49.092;8.516;2024-02-21T12:22:37;4.93;;;1.97;;
12155;SDS011;6141;49.092;8.516;2024-02-21T12:25:15;6.17;;;2.70;;
12155;SDS011;6141;49.092;8.516;2024-02-21T12:27:46;5.03;;;2.10;;
12155;SDS011;6141;49.092;8.516;2024-02-21T12:30:15;6.47;;;2.10;;
12155;SDS011;6141;49.092;8.516;2024-02-21T12:32:43;6.67;;;2.30;;
12155;SDS011;6141;49.092;8.516;2024-02-21T12:35:12;6.10;;;2.00;;
12155;SDS011;6141;49.092;8.516;2024-02-21T12:37:40;7.10;;;2.53;;
12155;SDS011;6141;49.092;8.516;2024-02-21T12:40:09;8.30;;;3.30;;
12155;SDS011;6141;49.092;8.516;2024-02-21T12:42:40;6.13;;;2.10;;
12155;SDS011;6141;49.092;8.516;2024-02-21T12:45:10;7.77;;;2.70;;
12155;SDS011;6141;49.092;8.516;2024-02-21T12:47:39;6.67;;;2.60;;
12155;SDS011;6141;49.092;8.516;2024-02-21T12:50:07;7.17;;;2.07;;
12155;SDS011;6141;49.092;8.516;2024-02-21T12:52:36;4.97;;;2.00;;
12155;SDS011;6141;49.092;8.516;2024-02-21T12:55:05;5.10;;;2.23;;
12155;SDS011;6141;49.092;8.516;2024-02-21T12:57:33;5.20;;;2.07;;
12155;SDS011;6141;49.092;8.516;2024-02-21T13:00:02;5.37;;;2.23;;
12155;SDS011;6141;49.092;8.516;2024-02-21T13:02:34;6.37;;;2.53;;
12155;SDS011;6141;49.092;8.516;2024-02-21T13:05:02;6.80;;;2.70;;
12155;SDS011;6141;49.092;8.516;2024-02-21T13:07:32;4.90;;;2.00;;
12155;SDS011;6141;49.092;8.516;2024-02-21T13:10:00;4.70;;;2.00;;
12155;SDS011;6141;49.092;8.516;2024-02-21T13:12:28;5.03;;;2.03;;
12155;SDS011;6141;49.092;8.516;2024-02-21T13:14:57;7.23;;;2.10;;
12155;SDS011;6141;49.092;8.516;2024-02-21T13:17:25;5.47;;;2.00;;
12155;SDS011;6141;49.092;8.516;2024-02-21T13:19:58;4.10;;;1.70;;
12155;SDS011;6141;49.092;8.516;2024-02-21T13:22:27;4.77;;;2.17;;
12155;SDS011;6141;49.092;8.516;2024-02-21T13:24:55;5.20;;;1.97;;
12155;SDS011;6141;49.092;8.516;2024-02-21T13:27:24;5.70;;;2.27;;
12155;SDS011;6141;49.092;8.516;2024-02-21T13:29:52;4.93;;;2.23;;
12155;SDS011;6141;49.092;8.516;2024-02-21T13:32:20;5.23;;;2.10;;
12155;SDS011;6141;49.092;8.516;2024-02-21T13:34:48;3.73;;;2.10;;
12155;SDS011;6141;49.092;8.516;2024-02-21T13:37:20;4.13;;;2.03;;
12155;SDS011;6141;49.092;8.516;2024-02-21T13:39:48;5.43;;;2.27;;
12155;SDS011;6141;49.092;8.516;2024-02-21T13:42:17;5.50;;;2.23;;
12155;SDS011;6141;49.092;8.516;2024-02-21T13:44:45;5.57;;;2.07;;
12155;SDS011;6141;49.092;8.516;2024-02-21T13:47:14;4.37;;;1.93;;
12155;SDS011;6141;49.092;8.516;2024-02-21T13:49:43;8.17;;;2.37;;
12155;SDS011;6141;49.092;8.516;2024-02-21T13:52:11;5.17;;;1.97;;
12155;SDS011;6141;49.092;8.516;2024-02-21T13:54:40;4.80;;;2.53;;
12155;SDS011;6141;49.092;8.516;2024-02-21T13:57:09;6.50;;;2.40;;
12155;SDS011;6141;49.092;8.516;2024-02-21T13:59:37;4.87;;;2.03;;
12155;SDS011;6141;49.092;8.516;2024-02-21T14:02:06;4.83;;;2.00;;
12155;SDS011;6141;49.092;8.516;2024-02-21T14:04:34;4.47;;;2.10;;
12155;SDS011;6141;49.092;8.516;2024-02-21T14:07:03;7.20;;;2.20;;
12155;SDS011;6141;49.092;8.516;2024-02-21T14:09:31;7.47;;;2.13;;
12155;SDS011;6141;49.092;8.516;2024-02-21T14:12:02;5.13;;;2.30;;
12155;SDS011;6141;49.092;8.516;2024-02-21T14:14:34;5.80;;;2.17;;
12155;SDS011;6141;49.092;8.516;2024-02-21T14:17:05;6.63;;;2.40;;
12155;SDS011;6141;49.092;8.516;2024-02-21T14:19:34;5.43;;;2.10;;
12155;SDS011;6141;49.092;8.516;2024-02-21T14:22:03;8.87;;;2.40;;
12155;SDS011;6141;49.092;8.516;2024-02-21T14:24:31;5.90;;;2.30;;
12155;SDS011;6141;49.092;8.516;2024-02-21T14:27:04;4.47;;;2.23;;
12155;SDS011;6141;49.092;8.516;2024-02-21T14:29:32;6.37;;;2.30;;
12155;SDS011;6141;49.092;8.516;2024-02-21T14:32:00;6.37;;;2.27;;
12155;SDS011;6141;49.092;8.516;2024-02-21T14:34:28;4.87;;;2.40;;
12155;SDS011;6141;49.092;8.516;2024-02-21T14:36:57;6.03;;;2.40;;
12155;SDS011;6141;49.092;8.516;2024-02-21T14:39:25;5.30;;;2.20;;
12155;SDS011;6141;49.092;8.516;2024-02-21T14:41:53;6.87;;;2.17;;
12155;SDS011;6141;49.092;8.516;2024-02-21T14:44:23;5.87;;;2.30;;
12155;SDS011;6141;49.092;8.516;2024-02-21T14:46:51;6.63;;;1.97;;
12155;SDS011;6141;49.092;8.516;2024-02-21T14:49:19;4.50;;;2.10;;
12155;SDS011;6141;49.092;8.516;2024-02-21T14:51:47;4.50;;;2.00;;
12155;SDS011;6141;49.092;8.516;2024-02-21T14:54:16;6.30;;;2.07;;
12155;SDS011;6141;49.092;8.516;2024-02-21T14:56:44;6.27;;;2.10;;
12155;SDS011;6141;49.092;8.516;2024-02-21T14:59:13;4.93;;;2.10;;
12155;SDS011;6141;49.092;8.516;2024-02-21T15:01:56;4.77;;;2.27;;
12155;SDS011;6141;49.092;8.516;2024-02-21T15:04:24;4.70;;;2.07;;
12155;SDS011;6141;49.092;8.516;2024-02-21T15:06:53;5.70;;;2.10;;
12155;SDS011;6141;49.092;8.516;2024-02-21T15:09:21;5.30;;;2.10;;